createdAt,value
2019-05-29T00:00:35.510Z,99.99
2019-05-29T00:01:35.493Z,99.99
2019-05-29T00:02:35.494Z,99.99
2019-05-29T00:03:35.473Z,99.99
2019-05-29T00:04:35.508Z,99.99
2019-05-29T00:05:35.454Z,99.99
2019-05-29T00:06:35.458Z,99.99
2019-05-29T00:07:35.445Z,99.99
2019-05-29T00:08:35.480Z,99.99
2019-05-29T00:09:35.406Z,99.99
2019-05-29T00:10:35.393Z,99.99
2019-05-29T00:11:35.385Z,99.99
2019-05-29T00:12:35.398Z,99.99
2019-05-29T00:13:35.446Z,99.99
2019-05-29T00:14:35.352Z,99.99
2019-05-29T00:15:35.341Z,99.99
2019-05-29T00:16:35.330Z,99.99
2019-05-29T00:17:35.335Z,99.99
2019-05-29T00:18:35.308Z,99.99
2019-05-29T00:19:35.330Z,99.99
2019-05-29T00:20:35.288Z,99.99
2019-05-29T00:21:35.279Z,99.99
2019-05-29T00:22:35.280Z,99.99
2019-05-29T00:23:35.260Z,99.99
2019-05-29T00:24:35.246Z,99.99
2019-05-29T00:25:35.271Z,99.99
2019-05-29T00:26:35.221Z,99.99
2019-05-29T00:27:35.225Z,99.99
2019-05-29T00:28:35.202Z,99.99
2019-05-29T00:29:35.427Z,99.99
2019-05-29T00:30:35.365Z,99.99
2019-05-29T00:31:35.341Z,99.99
2019-05-29T00:32:35.440Z,99.99
2019-05-29T00:33:35.308Z,99.99
2019-05-29T00:34:35.241Z,99.99
2019-05-29T00:35:56.389Z,99.99
2019-05-29T00:37:00.569Z,99.99
2019-05-29T00:37:35.135Z,99.99
2019-05-29T00:39:28.417Z,99.99
2019-05-29T00:39:38.382Z,99.99
2019-05-29T00:40:40.531Z,99.99
2019-05-29T00:42:11.102Z,99.99
2019-05-29T00:42:35.097Z,99.99
2019-05-29T00:44:15.644Z,99.99
2019-05-29T00:45:37.652Z,99.99
2019-05-29T00:46:36.742Z,99.99
2019-05-29T00:48:45.646Z,99.99
2019-05-29T00:50:00.465Z,99.99
2019-05-29T00:50:35.080Z,99.99
2019-05-29T00:51:35.001Z,99.99
2019-05-29T00:52:34.947Z,99.99
2019-05-29T00:53:34.973Z,99.99
2019-05-29T00:54:34.924Z,99.99
2019-05-29T00:55:34.907Z,99.99
2019-05-29T00:56:34.903Z,99.99
2019-05-29T00:57:34.888Z,99.99
2019-05-29T00:58:34.893Z,99.99
2019-05-29T00:59:34.864Z,99.99
2019-05-29T01:00:34.856Z,99.99
2019-05-29T01:01:34.842Z,99.99
2019-05-29T01:02:34.840Z,99.99
2019-05-29T01:03:34.875Z,99.99
2019-05-29T01:04:34.808Z,99.99
2019-05-29T01:05:34.800Z,99.99
2019-05-29T01:06:34.837Z,99.99
2019-05-29T01:07:34.781Z,99.99
2019-05-29T01:08:34.781Z,99.99
2019-05-29T01:09:34.794Z,99.99
2019-05-29T01:10:34.746Z,99.99
2019-05-29T01:11:34.737Z,99.99
2019-05-29T01:12:34.729Z,99.99
2019-05-29T01:13:34.728Z,99.99
2019-05-29T01:14:49.207Z,99.99
2019-05-29T01:15:35.696Z,99.99
2019-05-29T01:16:34.681Z,99.99
2019-05-29T01:17:34.669Z,99.99
2019-05-29T01:18:34.672Z,99.99
2019-05-29T01:19:34.649Z,99.99
2019-05-29T01:20:34.665Z,99.99
2019-05-29T01:21:34.629Z,99.99
2019-05-29T01:22:34.622Z,99.99
2019-05-29T01:23:34.617Z,99.99
2019-05-29T01:24:34.596Z,99.99
2019-05-29T01:25:34.586Z,99.99
2019-05-29T01:26:34.626Z,99.99
2019-05-29T01:27:34.562Z,99.99
2019-05-29T01:28:34.571Z,99.99
2019-05-29T01:29:34.541Z,99.99
2019-05-29T01:30:34.531Z,99.99
2019-05-29T01:31:34.524Z,99.99
2019-05-29T01:32:34.541Z,99.99
2019-05-29T01:33:34.511Z,99.99
2019-05-29T01:34:34.486Z,99.99
2019-05-29T01:35:34.482Z,99.99
2019-05-29T01:36:34.464Z,99.99
2019-05-29T01:37:34.456Z,99.99
2019-05-29T01:38:34.498Z,99.99
2019-05-29T01:39:34.511Z,99.99
2019-05-29T01:40:34.422Z,99.99
2019-05-29T01:41:34.412Z,99.99
2019-05-29T01:42:34.412Z,99.99
2019-05-29T01:43:34.416Z,99.99
2019-05-29T01:44:34.417Z,99.99
2019-05-29T01:45:34.368Z,99.99
2019-05-29T01:46:34.358Z,99.99
2019-05-29T01:47:34.346Z,99.99
2019-05-29T01:48:34.334Z,99.99
2019-05-29T01:49:34.340Z,99.99
2019-05-29T01:50:34.337Z,99.99
2019-05-29T01:51:34.301Z,99.99
2019-05-29T01:52:34.292Z,99.99
2019-05-29T01:53:34.284Z,99.99
2019-05-29T01:54:34.281Z,99.99
2019-05-29T01:55:34.263Z,99.99
2019-05-29T01:56:34.281Z,99.99
2019-05-29T01:57:34.240Z,99.99
2019-05-29T01:58:34.227Z,99.99
2019-05-29T01:59:34.230Z,99.99
2019-05-29T02:00:34.209Z,99.99
2019-05-29T02:01:34.200Z,99.99
2019-05-29T02:02:34.215Z,99.99
2019-05-29T02:03:34.172Z,99.99
2019-05-29T02:04:34.175Z,99.99
2019-05-29T02:05:34.154Z,99.99
2019-05-29T02:06:34.140Z,99.99
2019-05-29T02:07:34.130Z,99.99
2019-05-29T02:08:34.183Z,99.99
2019-05-29T02:09:34.118Z,99.99
2019-05-29T02:10:34.097Z,99.99
2019-05-29T02:11:34.089Z,99.99
2019-05-29T02:12:34.077Z,99.99
2019-05-29T02:13:34.067Z,99.99
2019-05-29T02:14:34.103Z,99.99
2019-05-29T02:15:34.190Z,99.99
2019-05-29T02:16:34.037Z,99.99
2019-05-29T02:17:34.020Z,99.99
2019-05-29T02:18:34.010Z,99.99
2019-05-29T02:19:34.010Z,99.99
2019-05-29T02:20:34.028Z,99.99
2019-05-29T02:21:33.989Z,99.99
2019-05-29T02:22:33.973Z,99.99
2019-05-29T02:23:33.956Z,99.99
2019-05-29T02:24:33.956Z,99.99
2019-05-29T02:25:33.932Z,99.99
2019-05-29T02:26:33.924Z,99.99
2019-05-29T02:27:33.945Z,99.99
2019-05-29T02:28:33.901Z,99.99
2019-05-29T02:29:33.899Z,99.99
2019-05-29T02:30:33.881Z,99.99
2019-05-29T02:31:33.876Z,99.99
2019-05-29T02:32:33.863Z,99.99
2019-05-29T02:33:33.926Z,99.99
2019-05-29T02:34:33.855Z,99.99
2019-05-29T02:35:33.824Z,99.99
2019-05-29T02:36:33.863Z,99.99
2019-05-29T02:37:33.833Z,99.99
2019-05-29T02:38:33.802Z,99.99
2019-05-29T02:39:33.844Z,99.99
2019-05-29T02:40:33.774Z,99.99
2019-05-29T02:41:33.762Z,99.99
2019-05-29T02:42:33.750Z,99.99
2019-05-29T02:43:33.740Z,99.99
2019-05-29T02:44:33.771Z,99.99
2019-05-29T02:45:52.743Z,99.99
2019-05-29T02:46:34.706Z,99.99
2019-05-29T02:47:33.695Z,99.99
2019-05-29T02:48:33.686Z,99.99
2019-05-29T02:49:33.694Z,99.99
2019-05-29T02:50:33.710Z,99.99
2019-05-29T02:51:33.659Z,99.99
2019-05-29T02:52:33.639Z,99.99
2019-05-29T02:53:33.630Z,99.99
2019-05-29T02:54:33.650Z,99.99
2019-05-29T02:55:33.702Z,99.99
2019-05-29T02:56:33.597Z,99.99
2019-05-29T02:57:33.593Z,99.99
2019-05-29T02:58:33.612Z,99.99
2019-05-29T02:59:33.564Z,99.99
2019-05-29T03:00:33.570Z,99.99
2019-05-29T03:01:33.550Z,99.99
2019-05-29T03:02:33.535Z,99.99
2019-05-29T03:03:39.531Z,99.99
2019-05-29T03:04:34.551Z,99.99
2019-05-29T03:05:33.513Z,99.99
2019-05-29T03:06:33.490Z,99.99
2019-05-29T03:07:33.478Z,99.99
2019-05-29T03:08:34.393Z,99.99
2019-05-29T03:09:33.463Z,99.99
2019-05-29T03:10:33.499Z,99.99
2019-05-29T03:11:33.671Z,99.99
2019-05-29T03:12:33.801Z,99.99
2019-05-29T03:13:33.792Z,99.99
2019-05-29T03:14:34.728Z,99.99
2019-05-29T03:15:33.855Z,99.99
2019-05-29T03:16:34.912Z,99.99
2019-05-29T03:17:33.811Z,99.99
2019-05-29T03:18:34.955Z,99.99
2019-05-29T03:19:34.726Z,99.99
2019-05-29T03:20:34.536Z,99.99
2019-05-29T03:21:34.774Z,99.99
2019-05-29T03:22:35.136Z,99.99
2019-05-29T03:23:35.725Z,99.99
2019-05-29T03:24:34.925Z,99.99
2019-05-29T03:25:34.921Z,99.99
2019-05-29T03:26:34.889Z,99.99
2019-05-29T03:27:33.980Z,99.99
2019-05-29T03:28:35.041Z,99.99
2019-05-29T03:29:34.331Z,99.99
2019-05-29T03:30:41.351Z,99.99
2019-05-29T03:31:41.894Z,99.99
2019-05-29T03:32:42.357Z,99.99
2019-05-29T03:33:41.230Z,99.99
2019-05-29T03:34:39.258Z,99.99
2019-05-29T03:35:43.220Z,99.99
2019-05-29T03:36:39.311Z,99.99
2019-05-29T03:37:34.521Z,99.99
2019-05-29T03:38:34.643Z,99.99
2019-05-29T03:39:34.574Z,99.99
2019-05-29T03:40:34.987Z,99.99
2019-05-29T03:41:34.758Z,99.99
2019-05-29T03:42:34.347Z,99.99
2019-05-29T03:43:35.783Z,99.99
2019-05-29T03:44:35.152Z,99.99
2019-05-29T03:45:33.999Z,99.99
2019-05-29T03:46:41.135Z,99.99
2019-05-29T03:47:35.055Z,99.99
2019-05-29T03:48:34.422Z,99.99
2019-05-29T03:49:33.224Z,99.99
2019-05-29T03:50:34.762Z,99.99
2019-05-29T03:51:35.160Z,99.99
2019-05-29T03:52:34.728Z,99.99
2019-05-29T03:53:33.829Z,99.99
2019-05-29T03:54:34.943Z,99.99
2019-05-29T03:55:33.726Z,99.99
2019-05-29T03:56:34.650Z,99.99
2019-05-29T03:57:33.898Z,99.99
2019-05-29T03:58:33.556Z,99.99
2019-05-29T03:59:33.444Z,99.99
2019-05-29T04:00:41.814Z,99.99
2019-05-29T04:01:35.563Z,99.99
2019-05-29T04:02:33.319Z,99.99
2019-05-29T04:03:33.489Z,99.99
2019-05-29T04:04:33.529Z,99.99
2019-05-29T04:05:33.506Z,99.99
2019-05-29T04:06:33.382Z,99.99
2019-05-29T04:07:33.752Z,99.99
2019-05-29T04:08:33.572Z,99.99
2019-05-29T04:09:33.408Z,99.99
2019-05-29T04:10:34.960Z,99.99
2019-05-29T04:11:33.203Z,99.99
2019-05-29T04:12:33.482Z,99.99
2019-05-29T04:13:34.043Z,99.99
2019-05-29T04:14:33.508Z,99.99
2019-05-29T04:15:33.837Z,99.99
2019-05-29T04:16:52.406Z,99.99
2019-05-29T04:17:33.798Z,99.99
2019-05-29T04:18:33.872Z,99.99
2019-05-29T04:19:34.872Z,99.99
2019-05-29T04:20:33.600Z,99.99
2019-05-29T04:21:34.219Z,99.99
2019-05-29T04:22:34.257Z,99.99
2019-05-29T04:23:34.101Z,99.99
2019-05-29T04:24:33.969Z,99.99
2019-05-29T04:25:36.023Z,99.99
2019-05-29T04:26:34.006Z,99.99
2019-05-29T04:27:34.178Z,99.99
2019-05-29T04:28:34.485Z,99.99
2019-05-29T04:29:33.823Z,99.99
2019-05-29T04:30:34.188Z,99.99
2019-05-29T04:31:34.345Z,99.99
2019-05-29T04:32:34.069Z,99.99
2019-05-29T04:33:33.111Z,99.99
2019-05-29T04:34:34.241Z,99.99
2019-05-29T04:35:32.673Z,99.99
2019-05-29T04:36:33.034Z,99.99
2019-05-29T04:37:32.664Z,99.99
2019-05-29T04:38:33.782Z,99.99
2019-05-29T04:39:32.801Z,99.99
2019-05-29T04:40:32.871Z,99.99
2019-05-29T04:41:32.824Z,99.99
2019-05-29T04:42:33.978Z,99.99
2019-05-29T04:43:33.361Z,99.99
2019-05-29T04:44:33.425Z,99.99
2019-05-29T04:45:33.193Z,99.99
2019-05-29T04:46:33.935Z,99.99
2019-05-29T04:47:33.303Z,99.99
2019-05-29T04:48:34.058Z,99.99
2019-05-29T04:49:33.729Z,99.99
2019-05-29T04:50:33.489Z,99.99
2019-05-29T04:51:33.069Z,99.99
2019-05-29T04:52:33.838Z,99.99
2019-05-29T04:53:33.435Z,99.99
2019-05-29T04:54:33.381Z,99.99
2019-05-29T04:55:32.724Z,99.99
2019-05-29T04:56:32.766Z,99.99
2019-05-29T04:57:32.835Z,99.99
2019-05-29T04:58:32.851Z,99.99
2019-05-29T04:59:33.054Z,99.99
2019-05-29T05:00:33.105Z,99.99
2019-05-29T05:01:33.033Z,99.99
2019-05-29T05:02:33.033Z,99.99
2019-05-29T05:03:33.183Z,99.99
2019-05-29T05:04:33.201Z,99.99
2019-05-29T05:05:33.261Z,99.99
2019-05-29T05:06:33.205Z,99.99
2019-05-29T05:07:33.154Z,99.99
2019-05-29T05:08:33.253Z,99.99
2019-05-29T05:09:33.328Z,99.99
2019-05-29T05:10:33.331Z,99.99
2019-05-29T05:11:33.335Z,99.99
2019-05-29T05:12:32.435Z,99.99
2019-05-29T05:13:32.108Z,99.99
2019-05-29T05:14:32.100Z,99.99
2019-05-29T05:15:32.095Z,99.99
2019-05-29T05:16:32.092Z,99.99
2019-05-29T05:17:32.099Z,99.99
2019-05-29T05:18:32.051Z,99.99
2019-05-29T05:19:32.032Z,99.99
2019-05-29T05:20:32.076Z,99.99
2019-05-29T05:21:32.053Z,99.99
2019-05-29T05:22:32.099Z,99.99
2019-05-29T05:23:32.036Z,99.99
2019-05-29T05:24:32.193Z,99.99
2019-05-29T05:25:32.215Z,99.99
2019-05-29T05:26:32.160Z,99.99
2019-05-29T05:27:32.190Z,99.99
2019-05-29T05:28:32.208Z,99.99
2019-05-29T05:29:32.142Z,99.99
2019-05-29T05:30:32.389Z,99.99
2019-05-29T05:31:32.391Z,99.99
2019-05-29T05:32:32.626Z,99.99
2019-05-29T05:33:32.406Z,99.99
2019-05-29T05:34:32.571Z,99.99
2019-05-29T05:35:32.618Z,99.99
2019-05-29T05:36:32.669Z,99.99
2019-05-29T05:37:32.671Z,99.99
2019-05-29T05:38:32.607Z,99.99
2019-05-29T05:39:32.762Z,99.99
2019-05-29T05:40:33.013Z,99.99
2019-05-29T05:41:32.719Z,99.99
2019-05-29T05:42:32.894Z,99.99
2019-05-29T05:43:32.849Z,99.99
2019-05-29T05:44:32.756Z,99.99
2019-05-29T05:45:32.894Z,99.99
2019-05-29T05:46:32.855Z,99.99
2019-05-29T05:47:44.940Z,99.99
2019-05-29T05:48:33.011Z,99.99
2019-05-29T05:49:31.707Z,99.99
2019-05-29T05:50:31.705Z,99.99
2019-05-29T05:51:31.741Z,99.99
2019-05-29T05:52:31.701Z,99.99
2019-05-29T05:53:31.682Z,99.99
2019-05-29T05:54:31.659Z,99.99
2019-05-29T05:55:31.654Z,99.99
2019-05-29T05:56:31.633Z,99.99
2019-05-29T05:57:31.645Z,99.99
2019-05-29T05:58:31.724Z,99.99
2019-05-29T05:59:31.615Z,99.99
2019-05-29T06:00:32.013Z,99.89
2019-05-29T06:01:31.788Z,99.99
2019-05-29T06:02:31.747Z,99.99
2019-05-29T06:03:31.879Z,99.99
2019-05-29T06:04:31.803Z,99.99
2019-05-29T06:05:32.109Z,99.95
2019-05-29T06:06:31.961Z,99.64
2019-05-29T06:07:31.977Z,99.84
2019-05-29T06:08:32.030Z,98.93
2019-05-29T06:09:32.666Z,98.72
2019-05-29T06:10:32.052Z,98.82
2019-05-29T06:11:32.203Z,98.57
2019-05-29T06:12:32.258Z,97.80
2019-05-29T06:13:32.154Z,97.65
2019-05-29T06:14:32.328Z,97.49
2019-05-29T06:15:32.337Z,97.65
2019-05-29T06:16:32.864Z,98.36
2019-05-29T06:17:32.332Z,98.98
2019-05-29T06:18:32.397Z,98.98
2019-05-29T06:19:32.711Z,98.27
2019-05-29T06:20:32.538Z,97.45
2019-05-29T06:21:32.488Z,97.65
2019-05-29T06:22:32.814Z,97.65
2019-05-29T06:23:32.692Z,97.55
2019-05-29T06:24:31.326Z,97.04
2019-05-29T06:25:31.481Z,97.45
2019-05-29T06:26:31.310Z,97.04
2019-05-29T06:27:31.321Z,97.75
2019-05-29T06:28:31.298Z,97.50
2019-05-29T06:29:31.360Z,97.81
2019-05-29T06:30:31.261Z,97.91
2019-05-29T06:31:31.249Z,97.09
2019-05-29T06:32:31.252Z,97.20
2019-05-29T06:33:31.268Z,97.00
2019-05-29T06:34:31.210Z,97.09
2019-05-29T06:35:31.246Z,96.89
2019-05-29T06:36:31.203Z,97.16
2019-05-29T06:37:31.194Z,97.31
2019-05-29T06:38:31.208Z,96.64
2019-05-29T06:39:31.165Z,96.91
2019-05-29T06:40:31.150Z,96.14
2019-05-29T06:41:31.150Z,95.89
2019-05-29T06:42:31.144Z,96.50
2019-05-29T06:43:31.191Z,96.39
2019-05-29T06:44:31.114Z,97.11
2019-05-29T06:45:31.094Z,96.86
2019-05-29T06:46:31.085Z,96.25
2019-05-29T06:47:31.080Z,96.25
2019-05-29T06:48:42.376Z,96.15
2019-05-29T06:49:32.055Z,96.35
2019-05-29T06:50:31.158Z,94.11
2019-05-29T06:51:31.071Z,93.60
2019-05-29T06:52:31.031Z,94.42
2019-05-29T06:53:31.042Z,95.94
2019-05-29T06:54:31.013Z,96.04
2019-05-29T06:55:30.990Z,93.64
2019-05-29T06:56:30.978Z,93.74
2019-05-29T06:57:30.973Z,95.33
2019-05-29T06:58:31.019Z,94.11
2019-05-29T06:59:30.949Z,95.03
2019-05-29T07:00:35.216Z,93.90
2019-05-29T07:01:30.917Z,93.80
2019-05-29T07:02:31.890Z,95.33
2019-05-29T07:03:30.918Z,93.19
2019-05-29T07:04:30.905Z,91.50
2019-05-29T07:05:30.914Z,93.44
2019-05-29T07:06:30.890Z,93.64
2019-05-29T07:07:30.873Z,92.52
2019-05-29T07:08:38.985Z,92.42
2019-05-29T07:09:31.882Z,94.05
2019-05-29T07:10:30.906Z,92.42
2019-05-29T07:11:30.814Z,93.03
2019-05-29T07:12:30.799Z,92.77
2019-05-29T07:13:34.707Z,91.35
2019-05-29T07:14:30.789Z,92.52
2019-05-29T07:15:30.761Z,92.36
2019-05-29T07:16:43.918Z,92.05
2019-05-29T07:17:31.749Z,91.40
2019-05-29T07:18:30.738Z,92.01
2019-05-29T07:19:47.725Z,91.36
2019-05-29T07:20:31.718Z,92.68
2019-05-29T07:21:30.697Z,91.42
2019-05-29T07:22:30.733Z,90.60
2019-05-29T07:23:30.733Z,91.17
2019-05-29T07:24:30.701Z,88.77
2019-05-29T07:25:30.654Z,88.36
2019-05-29T07:26:30.658Z,89.48
2019-05-29T07:27:30.633Z,91.38
2019-05-29T07:28:30.628Z,89.81
2019-05-29T07:29:30.649Z,89.61
2019-05-29T07:30:30.641Z,88.65
2019-05-29T07:31:30.606Z,89.15
2019-05-29T07:32:30.583Z,89.07
2019-05-29T07:33:30.569Z,88.32
2019-05-29T07:34:30.570Z,86.19
2019-05-29T07:35:30.543Z,84.77
2019-05-29T07:36:30.562Z,83.79
2019-05-29T07:37:30.535Z,85.46
2019-05-29T07:38:30.516Z,87.14
2019-05-29T07:39:30.516Z,86.19
2019-05-29T07:40:30.492Z,86.55
2019-05-29T07:41:30.487Z,86.21
2019-05-29T07:42:30.535Z,82.01
2019-05-29T07:43:30.461Z,85.72
2019-05-29T07:44:30.456Z,84.77
2019-05-29T07:45:30.434Z,81.39
2019-05-29T07:46:30.430Z,81.99
2019-05-29T07:47:30.428Z,78.86
2019-05-29T07:48:30.418Z,81.12
2019-05-29T07:49:39.127Z,81.69
2019-05-29T07:50:31.378Z,79.26
2019-05-29T07:51:30.370Z,80.35
2019-05-29T07:52:30.412Z,76.94
2019-05-29T07:53:33.617Z,78.30
2019-05-29T07:54:30.380Z,78.06
2019-05-29T07:55:30.339Z,81.73
2019-05-29T07:56:30.329Z,81.65
2019-05-29T07:57:30.316Z,75.68
2019-05-29T07:58:30.302Z,74.43
2019-05-29T07:59:30.315Z,74.37
2019-05-29T08:00:35.592Z,71.60
2019-05-29T08:01:31.268Z,70.66
2019-05-29T08:02:30.246Z,70.66
2019-05-29T08:03:30.261Z,71.20
2019-05-29T08:04:30.242Z,73.25
2019-05-29T08:05:30.220Z,79.46
2019-05-29T08:06:30.234Z,71.20
2019-05-29T08:07:30.196Z,72.61
2019-05-29T08:08:30.183Z,72.81
2019-05-29T08:09:30.182Z,74.47
2019-05-29T08:10:30.164Z,72.61
2019-05-29T08:11:30.154Z,76.08
2019-05-29T08:12:30.162Z,73.25
2019-05-29T08:13:30.134Z,71.33
2019-05-29T08:14:30.130Z,71.37
2019-05-29T08:15:30.111Z,74.81
2019-05-29T08:16:30.106Z,75.46
2019-05-29T08:17:30.090Z,76.51
2019-05-29T08:18:30.100Z,78.23
2019-05-29T08:19:30.083Z,79.14
2019-05-29T08:20:30.051Z,75.90
2019-05-29T08:21:30.053Z,75.63
2019-05-29T08:22:34.261Z,77.62
2019-05-29T08:23:30.025Z,75.25
2019-05-29T08:24:30.078Z,75.56
2019-05-29T08:25:30.030Z,76.33
2019-05-29T08:26:29.986Z,76.87
2019-05-29T08:27:29.977Z,73.80
2019-05-29T08:28:29.975Z,74.16
2019-05-29T08:29:29.981Z,76.02
2019-05-29T08:30:30.069Z,76.21
2019-05-29T08:31:29.933Z,69.35
2019-05-29T08:32:29.923Z,69.79
2019-05-29T08:33:29.916Z,69.35
2019-05-29T08:34:29.922Z,67.50
2019-05-29T08:35:29.893Z,67.10
2019-05-29T08:36:29.905Z,67.47
2019-05-29T08:37:29.867Z,65.74
2019-05-29T08:38:29.861Z,59.89
2019-05-29T08:39:35.901Z,64.88
2019-05-29T08:40:30.844Z,59.86
2019-05-29T08:41:29.857Z,62.20
2019-05-29T08:42:29.813Z,64.92
2019-05-29T08:43:29.803Z,65.66
2019-05-29T08:44:29.817Z,63.73
2019-05-29T08:45:29.787Z,62.22
2019-05-29T08:46:33.151Z,64.52
2019-05-29T08:47:29.789Z,59.82
2019-05-29T08:48:29.751Z,60.15
2019-05-29T08:49:29.756Z,61.61
2019-05-29T08:51:28.586Z,62.80
2019-05-29T08:52:28.572Z,64.80
2019-05-29T08:53:28.571Z,70.93
2019-05-29T08:54:28.561Z,69.52
2019-05-29T08:55:28.558Z,73.85
2019-05-29T08:56:28.706Z,67.54
2019-05-29T08:57:28.528Z,63.31
2019-05-29T08:58:28.512Z,65.36
2019-05-29T08:59:28.500Z,65.23
2019-05-29T09:00:28.533Z,67.71
2019-05-29T09:01:28.487Z,64.77
2019-05-29T09:02:28.466Z,63.67
2019-05-29T09:03:28.460Z,63.28
2019-05-29T09:04:28.466Z,64.09
2019-05-29T09:05:28.486Z,58.99
2019-05-29T09:06:28.423Z,60.16
2019-05-29T09:07:28.411Z,63.56
2019-05-29T09:08:28.405Z,67.31
2019-05-29T09:09:28.391Z,65.23
2019-05-29T09:10:28.395Z,67.31
2019-05-29T09:11:28.371Z,69.21
2019-05-29T09:12:29.972Z,67.74
2019-05-29T09:13:28.350Z,67.43
2019-05-29T09:14:28.338Z,67.93
2019-05-29T09:15:28.338Z,68.71
2019-05-29T09:16:28.346Z,68.95
2019-05-29T09:17:28.302Z,67.13
2019-05-29T09:18:28.290Z,67.84
2019-05-29T09:19:28.307Z,68.04
2019-05-29T09:20:43.566Z,68.77
2019-05-29T09:21:29.261Z,72.64
2019-05-29T09:22:28.247Z,69.11
2019-05-29T09:23:28.238Z,68.91
2019-05-29T09:24:28.227Z,69.45
2019-05-29T09:25:28.266Z,70.19
2019-05-29T09:26:28.210Z,68.65
2019-05-29T09:27:28.193Z,67.93
2019-05-29T09:28:28.184Z,69.08
2019-05-29T09:29:28.230Z,67.93
2019-05-29T09:30:28.199Z,66.90
2019-05-29T09:31:28.147Z,65.73
2019-05-29T09:32:48.477Z,67.65
2019-05-29T09:33:29.128Z,64.98
2019-05-29T09:34:28.153Z,61.95
2019-05-29T09:35:28.129Z,58.99
2019-05-29T09:36:28.100Z,60.71
2019-05-29T09:37:28.087Z,55.29
2019-05-29T09:38:28.076Z,58.00
2019-05-29T09:39:28.065Z,59.58
2019-05-29T09:40:28.083Z,63.39
2019-05-29T09:41:28.053Z,60.60
2019-05-29T09:42:28.033Z,66.27
2019-05-29T09:43:30.667Z,67.77
2019-05-29T09:44:38.077Z,69.69
2019-05-29T09:45:29.028Z,60.61
2019-05-29T09:46:28.011Z,63.64
2019-05-29T09:47:27.984Z,59.45
2019-05-29T09:48:28.825Z,62.45
2019-05-29T09:49:27.958Z,63.79
2019-05-29T09:50:46.491Z,63.90
2019-05-29T09:51:28.936Z,63.00
2019-05-29T09:52:30.652Z,62.40
2019-05-29T09:53:27.986Z,62.51
2019-05-29T09:54:28.111Z,64.20
2019-05-29T09:55:27.920Z,59.67
2019-05-29T09:56:27.962Z,63.27
2019-05-29T09:57:27.879Z,66.16
2019-05-29T09:58:27.858Z,66.19
2019-05-29T09:59:27.852Z,66.32
2019-05-29T10:00:27.932Z,67.23
2019-05-29T10:01:27.845Z,69.52
2019-05-29T10:02:27.823Z,70.09
2019-05-29T10:03:27.810Z,65.79
2019-05-29T10:04:27.804Z,64.44
2019-05-29T10:05:27.822Z,64.75
2019-05-29T10:06:27.844Z,64.07
2019-05-29T10:07:27.767Z,62.85
2019-05-29T10:08:27.749Z,59.42
2019-05-29T10:09:27.742Z,60.58
2019-05-29T10:10:27.736Z,60.47
2019-05-29T10:11:27.743Z,63.65
2019-05-29T10:12:27.713Z,60.06
2019-05-29T10:13:27.749Z,63.39
2019-05-29T10:14:27.688Z,61.69
2019-05-29T10:15:27.683Z,60.11
2019-05-29T10:16:27.779Z,58.02
2019-05-29T10:17:27.649Z,59.36
2019-05-29T10:18:32.507Z,57.14
2019-05-29T10:19:28.668Z,58.70
2019-05-29T10:20:27.626Z,56.49
2019-05-29T10:21:39.408Z,53.30
2019-05-29T10:22:28.677Z,51.39
2019-05-29T10:23:27.597Z,55.74
2019-05-29T10:24:27.603Z,55.27
2019-05-29T10:25:27.591Z,56.24
2019-05-29T10:26:27.581Z,53.81
2019-05-29T10:27:27.614Z,57.39
2019-05-29T10:28:27.578Z,54.24
2019-05-29T10:29:27.595Z,56.09
2019-05-29T10:30:27.519Z,51.84
2019-05-29T10:31:27.518Z,55.36
2019-05-29T10:32:27.507Z,57.07
2019-05-29T10:33:27.484Z,56.91
2019-05-29T10:34:27.485Z,55.26
2019-05-29T10:35:27.505Z,52.29
2019-05-29T10:36:27.480Z,54.57
2019-05-29T10:37:27.458Z,54.14
2019-05-29T10:38:27.440Z,56.99
2019-05-29T10:39:27.427Z,54.52
2019-05-29T10:40:27.425Z,56.21
2019-05-29T10:41:27.425Z,51.50
2019-05-29T10:42:27.449Z,51.10
2019-05-29T10:43:34.313Z,47.75
2019-05-29T10:44:28.370Z,61.35
2019-05-29T10:45:27.361Z,51.62
2019-05-29T10:46:27.363Z,57.71
2019-05-29T10:47:27.356Z,56.48
2019-05-29T10:48:27.376Z,54.16
2019-05-29T10:49:27.367Z,59.35
2019-05-29T10:50:27.304Z,54.34
2019-05-29T10:51:27.317Z,55.12
2019-05-29T10:52:27.301Z,60.68
2019-05-29T10:53:27.277Z,58.18
2019-05-29T10:54:27.274Z,59.94
2019-05-29T10:55:27.323Z,60.80
2019-05-29T10:56:27.275Z,60.41
2019-05-29T10:57:27.237Z,61.27
2019-05-29T10:58:27.237Z,62.64
2019-05-29T10:59:27.218Z,62.43
2019-05-29T11:00:27.209Z,68.48
2019-05-29T11:01:27.210Z,65.62
2019-05-29T11:02:27.277Z,64.07
2019-05-29T11:03:27.179Z,64.94
2019-05-29T11:04:27.161Z,65.54
2019-05-29T11:05:27.161Z,65.04
2019-05-29T11:06:27.173Z,65.17
2019-05-29T11:07:27.145Z,66.41
2019-05-29T11:08:27.116Z,67.76
2019-05-29T11:09:42.932Z,69.34
2019-05-29T11:10:28.101Z,69.92
2019-05-29T11:11:27.090Z,69.82
2019-05-29T11:12:27.102Z,69.71
2019-05-29T11:13:27.062Z,68.20
2019-05-29T11:14:27.104Z,69.18
2019-05-29T11:15:27.041Z,69.42
2019-05-29T11:16:27.023Z,70.22
2019-05-29T11:17:27.051Z,72.41
2019-05-29T11:18:27.017Z,67.13
2019-05-29T11:19:27.007Z,68.95
2019-05-29T11:20:27.055Z,71.17
2019-05-29T11:21:26.992Z,66.42
2019-05-29T11:22:26.983Z,68.04
2019-05-29T11:23:26.985Z,69.15
2019-05-29T11:24:26.981Z,66.75
2019-05-29T11:25:27.887Z,68.33
2019-05-29T11:26:26.996Z,67.02
2019-05-29T11:27:26.943Z,66.16
2019-05-29T11:28:26.905Z,66.56
2019-05-29T11:29:26.894Z,65.25
2019-05-29T11:30:26.910Z,67.94
2019-05-29T11:31:26.876Z,66.94
2019-05-29T11:32:26.890Z,63.45
2019-05-29T11:33:26.854Z,58.84
2019-05-29T11:34:26.894Z,58.96
2019-05-29T11:35:26.833Z,56.60
2019-05-29T11:36:26.822Z,54.72
2019-05-29T11:37:26.845Z,55.24
2019-05-29T11:38:26.818Z,55.16
2019-05-29T11:39:26.775Z,55.08
2019-05-29T11:40:26.793Z,53.76
2019-05-29T11:41:26.976Z,50.55
2019-05-29T11:42:28.201Z,50.42
2019-05-29T11:43:26.753Z,51.37
2019-05-29T11:44:26.739Z,54.47
2019-05-29T11:45:26.715Z,55.68
2019-05-29T11:46:26.740Z,55.76
2019-05-29T11:47:26.741Z,59.23
2019-05-29T11:48:26.691Z,62.35
2019-05-29T11:49:26.679Z,63.76
2019-05-29T11:50:26.661Z,62.08
2019-05-29T11:51:26.673Z,64.77
2019-05-29T11:52:41.791Z,62.03
2019-05-29T11:53:27.667Z,55.27
2019-05-29T11:54:26.662Z,56.87
2019-05-29T11:55:26.625Z,53.89
2019-05-29T11:56:26.614Z,52.72
2019-05-29T11:57:26.639Z,51.03
2019-05-29T11:58:31.132Z,51.95
2019-05-29T11:59:27.815Z,48.97
2019-05-29T12:00:26.633Z,52.24
2019-05-29T12:01:26.552Z,55.53
2019-05-29T12:02:26.564Z,57.22
2019-05-29T12:03:26.575Z,59.06
2019-05-29T12:04:27.071Z,62.57
2019-05-29T12:05:26.508Z,65.65
2019-05-29T12:06:26.548Z,65.95
2019-05-29T12:07:26.505Z,65.55
2019-05-29T12:08:26.478Z,65.08
2019-05-29T12:09:32.835Z,64.67
2019-05-29T12:10:27.450Z,66.16
2019-05-29T12:11:26.443Z,64.27
2019-05-29T12:12:26.453Z,65.99
2019-05-29T12:13:26.412Z,65.68
2019-05-29T12:14:26.416Z,66.19
2019-05-29T12:15:26.466Z,65.58
2019-05-29T12:16:26.405Z,63.36
2019-05-29T12:17:26.680Z,63.59
2019-05-29T12:18:26.374Z,64.47
2019-05-29T12:19:26.411Z,65.05
2019-05-29T12:20:28.841Z,61.52
2019-05-29T12:21:26.337Z,63.33
2019-05-29T12:22:26.336Z,61.59
2019-05-29T12:23:27.231Z,60.68
2019-05-29T12:24:26.306Z,60.48
2019-05-29T12:25:26.290Z,63.50
2019-05-29T12:26:26.271Z,60.35
2019-05-29T12:27:26.327Z,60.45
2019-05-29T12:28:26.280Z,62.16
2019-05-29T12:29:26.243Z,60.25
2019-05-29T12:30:26.288Z,64.07
2019-05-29T12:31:26.226Z,64.04
2019-05-29T12:32:26.205Z,66.25
2019-05-29T12:33:26.225Z,67.40
2019-05-29T12:34:26.197Z,68.24
2019-05-29T12:35:26.184Z,67.50
2019-05-29T12:36:26.196Z,67.23
2019-05-29T12:37:26.166Z,67.50
2019-05-29T12:38:26.160Z,65.71
2019-05-29T12:39:26.141Z,64.30
2019-05-29T12:40:26.232Z,65.88
2019-05-29T12:41:26.123Z,63.33
2019-05-29T12:42:26.113Z,64.24
2019-05-29T12:43:27.929Z,65.45
2019-05-29T12:44:26.073Z,66.25
2019-05-29T12:45:26.130Z,63.96
2019-05-29T12:46:26.062Z,65.88
2019-05-29T12:47:26.062Z,63.93
2019-05-29T12:48:26.071Z,63.90
2019-05-29T12:49:26.025Z,66.42
2019-05-29T12:50:26.021Z,65.69
2019-05-29T12:51:26.005Z,63.60
2019-05-29T12:52:25.991Z,68.41
2019-05-29T12:53:30.364Z,65.76
2019-05-29T12:54:26.961Z,61.40
2019-05-29T12:55:25.969Z,61.50